createdAt,value
2023-03-18T00:03:11.357Z,5.60
2023-03-18T00:07:11.640Z,6.00
2023-03-18T00:11:15.456Z,5.50
2023-03-18T00:15:15.312Z,5.30
2023-03-18T00:19:12.015Z,5.20
2023-03-18T00:23:12.048Z,5.80
2023-03-18T00:31:12.596Z,5.40
2023-03-18T00:35:11.377Z,4.90
2023-03-18T00:39:12.340Z,4.40
2023-03-18T00:43:11.750Z,4.60
2023-03-18T00:47:11.344Z,4.10
2023-03-18T00:51:13.253Z,4.00
2023-03-18T00:55:11.408Z,3.70
2023-03-18T00:59:12.340Z,3.60
2023-03-18T01:03:13.154Z,4.00
2023-03-18T01:07:12.405Z,3.70
2023-03-18T01:11:12.570Z,4.00
2023-03-18T01:15:14.017Z,3.60
2023-03-18T01:19:12.705Z,3.90
2023-03-18T01:23:12.336Z,3.70
2023-03-18T01:27:12.917Z,4.20
2023-03-18T01:31:11.674Z,3.70
2023-03-18T01:35:11.991Z,4.10
2023-03-18T01:39:11.469Z,4.10
2023-03-18T01:43:15.161Z,3.90
2023-03-18T01:47:12.396Z,4.40
2023-03-18T01:51:12.646Z,3.90
2023-03-18T01:55:15.263Z,4.40
2023-03-18T01:59:13.035Z,3.90
2023-03-18T02:03:11.890Z,4.10
2023-03-18T02:07:14.498Z,4.30
2023-03-18T02:11:12.540Z,4.10
2023-03-18T02:15:16.145Z,3.90
2023-03-18T02:19:24.988Z,4.10
2023-03-18T02:23:21.761Z,3.80
2023-03-18T02:27:14.771Z,4.20
2023-03-18T02:31:15.772Z,3.90
2023-03-18T02:35:12.773Z,4.10
2023-03-18T02:43:18.472Z,4.60
2023-03-18T02:51:15.192Z,5.50
2023-03-18T02:55:11.864Z,5.50
2023-03-18T02:59:12.754Z,5.70
2023-03-18T03:03:11.829Z,5.60
2023-03-18T03:07:12.570Z,6.80
2023-03-18T03:11:12.222Z,6.00
2023-03-18T03:19:11.844Z,6.60
2023-03-18T03:27:12.167Z,6.70
2023-03-18T03:31:11.863Z,7.10
2023-03-18T03:39:11.889Z,6.90
2023-03-18T03:47:12.239Z,6.50
2023-03-18T03:51:11.860Z,6.20
2023-03-18T03:55:14.158Z,5.80
2023-03-18T03:59:11.834Z,6.00
2023-03-18T04:03:12.487Z,6.30
2023-03-18T04:07:13.344Z,6.20
2023-03-18T04:15:13.749Z,5.80
2023-03-18T04:23:12.104Z,5.40
2023-03-18T04:31:12.426Z,4.80
2023-03-18T04:35:11.923Z,4.70
2023-03-18T04:43:12.183Z,4.30
2023-03-18T04:47:12.705Z,4.50
2023-03-18T04:51:12.575Z,4.10
2023-03-18T04:55:13.806Z,4.40
2023-03-18T04:59:12.058Z,4.60
2023-03-18T05:07:14.675Z,4.70
2023-03-18T05:11:12.012Z,4.30
2023-03-18T05:19:13.553Z,4.90
2023-03-18T05:23:12.093Z,5.10
2023-03-18T05:27:13.694Z,4.70
2023-03-18T05:31:12.076Z,4.80
2023-03-18T05:35:12.555Z,5.00
2023-03-18T05:43:14.051Z,4.50
2023-03-18T05:51:12.317Z,4.40
2023-03-18T05:55:12.838Z,4.70
2023-03-18T05:59:13.142Z,4.70
2023-03-18T06:03:12.356Z,4.50
2023-03-18T06:07:12.727Z,4.60
2023-03-18T06:11:12.727Z,4.30
2023-03-18T06:15:12.747Z,4.90
2023-03-18T06:19:12.361Z,4.70
2023-03-18T06:35:14.557Z,5.10
2023-03-18T06:39:13.007Z,5.30
2023-03-18T06:43:13.581Z,5.80
2023-03-18T06:47:12.443Z,5.40
2023-03-18T06:51:12.674Z,5.90
2023-03-18T06:55:13.789Z,6.00
2023-03-18T06:59:12.915Z,5.80
2023-03-18T07:03:14.567Z,6.10
2023-03-18T07:07:12.553Z,6.00
2023-03-18T07:19:12.713Z,6.30
2023-03-18T07:23:12.480Z,6.60
2023-03-18T07:27:13.956Z,6.40
2023-03-18T07:31:13.140Z,6.30
2023-03-18T07:39:12.604Z,6.30
2023-03-18T07:47:13.698Z,6.20
2023-03-18T07:51:14.198Z,5.90
2023-03-18T07:55:12.850Z,6.10
2023-03-18T07:59:12.496Z,6.40
2023-03-18T08:03:13.109Z,5.90
2023-03-18T08:07:13.143Z,5.50
2023-03-18T08:11:13.781Z,5.90
2023-03-18T08:15:12.928Z,5.80
2023-03-18T08:19:12.656Z,5.50
2023-03-18T08:27:12.713Z,5.90
2023-03-18T08:35:12.918Z,5.60
2023-03-18T08:39:13.599Z,6.10
2023-03-18T08:43:12.805Z,5.20
2023-03-18T08:47:12.621Z,4.50
2023-03-18T08:51:13.737Z,5.00
2023-03-18T08:55:13.010Z,4.50
2023-03-18T08:59:12.866Z,4.10
2023-03-18T09:03:13.801Z,4.10
2023-03-18T09:07:13.767Z,3.10
2023-03-18T09:11:12.844Z,3.30
2023-03-18T09:19:12.849Z,2.70
2023-03-18T09:23:14.683Z,2.80
2023-03-18T09:27:13.208Z,2.30
2023-03-18T09:31:14.368Z,2.30
2023-03-18T09:35:13.477Z,2.10
2023-03-18T09:39:13.183Z,2.00
2023-03-18T09:43:22.546Z,1.80
2023-03-18T09:47:22.818Z,1.90
2023-03-18T09:51:23.197Z,1.90
2023-03-18T09:55:21.382Z,2.00
2023-03-18T09:59:19.195Z,1.80
2023-03-18T10:03:20.475Z,2.30
2023-03-18T10:07:17.984Z,2.00
2023-03-18T10:11:21.296Z,1.90
2023-03-18T10:15:16.986Z,1.80
2023-03-18T10:19:12.894Z,1.80
2023-03-18T10:23:23.390Z,1.80
2023-03-18T10:27:18.154Z,1.70
2023-03-18T10:35:23.663Z,1.90
2023-03-18T10:39:15.404Z,1.80
2023-03-18T10:43:16.214Z,1.90
2023-03-18T10:51:18.946Z,2.30
2023-03-18T10:55:16.571Z,1.90
2023-03-18T10:59:15.341Z,2.10
2023-03-18T11:03:20.073Z,2.30
2023-03-18T11:15:19.518Z,2.40
2023-03-18T11:19:27.025Z,1.80
2023-03-18T11:23:17.080Z,2.20
2023-03-18T11:27:25.109Z,2.20
2023-03-18T11:31:17.092Z,2.10
2023-03-18T11:35:18.390Z,2.20
2023-03-18T11:39:15.596Z,2.20
2023-03-18T11:47:21.130Z,1.90
2023-03-18T11:51:32.586Z,2.10
2023-03-18T11:55:25.181Z,3.50
2023-03-18T11:59:31.064Z,2.40
2023-03-18T12:03:34.541Z,2.30
2023-03-18T12:07:25.467Z,1.90
2023-03-18T12:11:20.746Z,1.70
2023-03-18T12:15:22.961Z,1.50
2023-03-18T12:19:26.080Z,1.90
2023-03-18T12:23:28.849Z,1.90
2023-03-18T12:27:22.349Z,1.80
2023-03-18T12:31:28.316Z,1.50
2023-03-18T12:35:29.539Z,1.90
2023-03-18T12:39:33.058Z,2.00
2023-03-18T12:43:23.952Z,1.80
2023-03-18T12:47:19.721Z,1.80
2023-03-18T12:51:17.648Z,1.70
2023-03-18T12:55:17.365Z,2.90
2023-03-18T12:59:21.247Z,2.80
2023-03-18T13:03:25.209Z,1.70
2023-03-18T13:07:21.782Z,2.00
2023-03-18T13:11:28.209Z,1.60
2023-03-18T13:15:19.909Z,1.20
2023-03-18T13:19:13.358Z,1.40
2023-03-18T13:23:18.355Z,1.30
2023-03-18T13:27:23.488Z,1.50
2023-03-18T13:31:21.639Z,1.70
2023-03-18T13:35:33.267Z,1.50
2023-03-18T13:39:23.145Z,1.40
2023-03-18T13:43:17.478Z,1.20
2023-03-18T13:47:17.678Z,1.30
2023-03-18T13:51:19.555Z,1.00
2023-03-18T13:55:25.581Z,1.10
2023-03-18T13:59:33.372Z,1.50
2023-03-18T14:03:25.852Z,1.20
2023-03-18T14:07:16.656Z,1.40
2023-03-18T14:11:33.343Z,1.30
2023-03-18T14:15:33.521Z,1.20
2023-03-18T14:19:20.754Z,0.90
2023-03-18T14:31:19.473Z,0.90
2023-03-18T14:35:27.183Z,0.90
2023-03-18T14:39:17.661Z,1.10
2023-03-18T14:43:19.073Z,1.20
2023-03-18T14:47:35.558Z,1.30
2023-03-18T14:51:18.446Z,1.20
2023-03-18T14:59:16.377Z,1.20
2023-03-18T15:03:19.133Z,1.00
2023-03-18T15:11:15.362Z,1.40
2023-03-18T15:19:17.041Z,1.70
2023-03-18T15:23:15.051Z,1.80
2023-03-18T15:27:17.048Z,1.50
2023-03-18T15:31:23.938Z,1.30
2023-03-18T15:35:17.181Z,1.20
2023-03-18T15:39:18.441Z,1.20
2023-03-18T15:43:18.207Z,1.10
2023-03-18T15:47:17.383Z,1.20
2023-03-18T15:51:25.414Z,1.60
2023-03-18T15:55:25.579Z,1.60
2023-03-18T15:59:17.835Z,1.50
2023-03-18T16:03:17.995Z,1.60
2023-03-18T16:07:17.561Z,1.30
2023-03-18T16:11:14.950Z,1.20
2023-03-18T16:15:20.880Z,1.20
2023-03-18T16:19:18.340Z,1.20
2023-03-18T16:23:15.672Z,1.80
2023-03-18T16:27:27.264Z,2.00
2023-03-18T16:31:14.427Z,1.50
2023-03-18T16:35:14.915Z,1.80
2023-03-18T16:39:15.956Z,1.30
2023-03-18T16:43:16.549Z,1.40
2023-03-18T16:47:20.772Z,1.60
2023-03-18T16:51:13.989Z,1.20
2023-03-18T16:55:17.458Z,1.20
2023-03-18T16:59:14.759Z,1.30
2023-03-18T17:03:17.108Z,1.20
2023-03-18T17:07:14.595Z,1.00
2023-03-18T17:11:17.394Z,1.80
2023-03-18T17:15:16.785Z,1.10
2023-03-18T17:19:15.717Z,5.80
2023-03-18T17:23:15.958Z,3.20
2023-03-18T17:27:17.758Z,3.30
2023-03-18T17:31:15.554Z,1.30
2023-03-18T17:35:16.995Z,1.10
2023-03-18T17:39:14.318Z,1.00
2023-03-18T17:43:21.778Z,1.30
2023-03-18T17:47:14.150Z,1.10
2023-03-18T17:51:16.550Z,1.20
2023-03-18T17:55:16.311Z,1.60
2023-03-18T17:59:16.136Z,1.60
2023-03-18T18:03:19.997Z,1.80
2023-03-18T18:07:17.075Z,1.30
2023-03-18T18:11:19.037Z,1.50
2023-03-18T18:15:18.805Z,1.50
2023-03-18T18:19:15.501Z,1.60
2023-03-18T18:23:21.970Z,1.40
2023-03-18T18:27:14.939Z,1.50
2023-03-18T18:31:16.577Z,1.60
2023-03-18T18:35:16.309Z,1.90
2023-03-18T18:39:14.374Z,4.10
2023-03-18T18:43:14.281Z,1.70
2023-03-18T18:47:16.684Z,3.30
2023-03-18T18:51:17.299Z,5.90
2023-03-18T18:55:14.695Z,8.80
2023-03-18T18:59:21.964Z,2.20
2023-03-18T19:03:15.947Z,1.70
2023-03-18T19:07:14.506Z,2.10
2023-03-18T19:15:15.700Z,2.00
2023-03-18T19:19:17.698Z,1.70
2023-03-18T19:23:15.784Z,1.80
2023-03-18T19:27:19.573Z,2.00
2023-03-18T19:31:17.801Z,1.70
2023-03-18T19:35:14.683Z,1.90
2023-03-18T19:39:16.633Z,1.90
2023-03-18T19:43:16.807Z,2.00
2023-03-18T19:47:18.033Z,1.80
2023-03-18T19:51:15.268Z,1.70
2023-03-18T19:55:15.606Z,2.60
2023-03-18T19:59:18.997Z,2.20
2023-03-18T20:03:17.186Z,2.40
2023-03-18T20:07:15.437Z,2.70
2023-03-18T20:11:16.694Z,2.10
2023-03-18T20:15:16.380Z,2.30
2023-03-18T20:19:14.562Z,2.50
2023-03-18T20:23:19.645Z,2.10
2023-03-18T20:27:16.280Z,2.20
2023-03-18T20:31:14.638Z,2.10
2023-03-18T20:35:15.879Z,3.50
2023-03-18T20:39:19.726Z,2.70
2023-03-18T20:55:21.372Z,2.50
2023-03-18T20:59:14.740Z,3.10
2023-03-18T21:03:22.228Z,3.00
2023-03-18T21:07:14.793Z,2.90
2023-03-18T21:11:20.894Z,3.80
2023-03-18T21:15:17.693Z,2.90
2023-03-18T21:19:15.227Z,2.70
2023-03-18T21:23:20.668Z,3.20
2023-03-18T21:27:19.012Z,3.20
2023-03-18T21:31:22.141Z,3.50
2023-03-18T21:35:17.705Z,3.20
2023-03-18T21:39:14.956Z,3.30
2023-03-18T21:43:24.374Z,3.50
2023-03-18T21:47:16.935Z,3.00
2023-03-18T21:51:37.248Z,3.00
2023-03-18T21:55:16.013Z,3.20
2023-03-18T21:59:15.028Z,3.40
2023-03-18T22:03:17.386Z,3.20
2023-03-18T22:15:31.947Z,3.20
2023-03-18T22:19:14.859Z,3.00
2023-03-18T22:23:17.878Z,3.00
2023-03-18T22:27:17.496Z,2.90
2023-03-18T22:31:18.651Z,3.00
2023-03-18T22:35:16.971Z,3.20
2023-03-18T22:39:15.188Z,3.10
2023-03-18T22:43:24.467Z,3.00
2023-03-18T22:47:16.286Z,3.50
2023-03-18T22:55:20.121Z,3.10
2023-03-18T22:59:15.029Z,2.70
2023-03-18T23:03:17.638Z,3.00
2023-03-18T23:11:16.340Z,3.00
2023-03-18T23:15:17.316Z,2.70
2023-03-18T23:23:15.916Z,2.90
2023-03-18T23:27:15.081Z,2.90
2023-03-18T23:31:16.338Z,2.90
2023-03-18T23:35:15.672Z,2.70
2023-03-18T23:39:15.184Z,2.90
2023-03-18T23:43:15.554Z,3.30
2023-03-18T23:47:16.068Z,2.80
2023-03-18T23:51:15.115Z,3.20
2023-03-18T23:55:33.011Z,3.40
2023-03-18T23:59:15.170Z,2.90
